createdAt,value
2018-12-15T00:03:25.187Z,2.00
2018-12-15T00:07:27.826Z,2.00
2018-12-15T00:11:30.531Z,2.10
2018-12-15T00:15:33.299Z,2.00
2018-12-15T00:19:35.928Z,2.00
2018-12-15T00:23:38.581Z,2.00
2018-12-15T00:27:41.203Z,2.00
2018-12-15T00:31:43.836Z,2.00
2018-12-15T00:35:47.121Z,2.00
2018-12-15T00:39:52.759Z,2.00
2018-12-15T00:43:55.586Z,2.00
2018-12-15T00:48:03.987Z,2.00
2018-12-15T00:52:06.596Z,2.00
2018-12-15T00:56:09.329Z,2.00
2018-12-15T01:00:12.053Z,2.00
2018-12-15T01:04:14.653Z,2.00
2018-12-15T01:08:17.272Z,2.00
2018-12-15T01:12:19.888Z,2.00
2018-12-15T01:16:22.582Z,1.90
2018-12-15T01:20:25.253Z,1.90
2018-12-15T01:24:27.857Z,1.90
2018-12-15T01:28:30.460Z,1.90
2018-12-15T01:32:33.073Z,1.90
2018-12-15T01:36:35.775Z,2.00
2018-12-15T01:40:38.413Z,1.90
2018-12-15T01:44:41.046Z,1.90
2018-12-15T01:48:43.666Z,1.90
2018-12-15T01:52:46.272Z,1.90
2018-12-15T01:56:48.902Z,1.90
2018-12-15T02:00:51.501Z,1.90
2018-12-15T02:04:54.122Z,1.90
2018-12-15T02:08:56.736Z,1.90
2018-12-15T02:13:05.801Z,1.90
2018-12-15T02:17:08.417Z,1.90
2018-12-15T02:21:11.060Z,1.90
2018-12-15T02:25:13.678Z,1.90
2018-12-15T02:29:16.299Z,1.90
2018-12-15T02:33:18.912Z,1.90
2018-12-15T02:37:21.531Z,1.90
2018-12-15T02:41:24.870Z,1.90
2018-12-15T02:45:27.591Z,1.90
2018-12-15T02:49:30.208Z,1.90
2018-12-15T02:53:32.834Z,1.90
2018-12-15T02:57:35.450Z,1.90
2018-12-15T03:01:38.057Z,1.90
2018-12-15T03:05:40.669Z,1.90
2018-12-15T03:09:43.302Z,1.90
2018-12-15T03:13:45.917Z,1.90
2018-12-15T03:17:48.995Z,1.90
2018-12-15T03:21:51.903Z,1.90
2018-12-15T03:25:54.512Z,1.80
2018-12-15T03:29:57.131Z,1.80
2018-12-15T03:33:59.756Z,1.80
2018-12-15T03:38:02.382Z,1.80
2018-12-15T03:42:05.019Z,1.80
2018-12-15T03:46:07.638Z,1.80
2018-12-15T03:50:10.266Z,1.80
2018-12-15T03:54:12.906Z,1.80
2018-12-15T03:58:15.522Z,1.80
2018-12-15T04:02:18.175Z,1.80
2018-12-15T04:06:20.799Z,1.80
2018-12-15T04:10:23.409Z,1.80
2018-12-15T04:14:26.205Z,1.80
2018-12-15T04:18:28.826Z,1.80
2018-12-15T04:22:31.445Z,1.80
2018-12-15T04:26:34.067Z,1.80
2018-12-15T04:30:36.672Z,1.80
2018-12-15T04:34:39.289Z,1.80
2018-12-15T04:38:41.995Z,1.80
2018-12-15T04:42:44.617Z,1.80
2018-12-15T04:46:48.345Z,1.80
2018-12-15T04:50:50.979Z,1.80
2018-12-15T04:54:53.666Z,1.80
2018-12-15T04:58:56.290Z,1.80
2018-12-15T05:02:58.879Z,1.80
2018-12-15T05:07:01.606Z,1.80
2018-12-15T05:11:04.362Z,1.80
2018-12-15T05:15:07.170Z,1.80
2018-12-15T05:19:09.789Z,1.80
2018-12-15T05:23:12.424Z,1.80
2018-12-15T05:27:15.358Z,1.80
2018-12-15T05:31:17.977Z,1.80
2018-12-15T05:35:20.697Z,1.80
2018-12-15T05:39:23.309Z,1.80
2018-12-15T05:47:35.135Z,1.80
2018-12-15T05:51:37.900Z,1.80
2018-12-15T05:55:40.532Z,1.80
2018-12-15T05:59:43.316Z,1.80
2018-12-15T06:03:45.965Z,1.80
2018-12-15T06:07:48.682Z,1.80
2018-12-15T06:11:51.293Z,1.80
2018-12-15T06:15:53.900Z,1.80
2018-12-15T06:19:56.507Z,1.80
2018-12-15T06:23:59.126Z,1.80
2018-12-15T06:28:01.737Z,1.80
2018-12-15T06:32:04.451Z,1.80
2018-12-15T06:36:07.078Z,1.80
2018-12-15T06:40:09.722Z,1.80
2018-12-15T06:44:12.359Z,1.80
2018-12-15T06:48:15.161Z,1.80
2018-12-15T06:52:17.788Z,1.80
2018-12-15T06:56:24.730Z,1.80
2018-12-15T07:00:27.337Z,1.80
2018-12-15T07:04:29.955Z,1.70
2018-12-15T07:08:32.565Z,1.80
2018-12-15T07:12:35.178Z,1.80
2018-12-15T07:16:37.790Z,1.80
2018-12-15T07:20:40.402Z,1.80
2018-12-15T07:24:43.040Z,1.80
2018-12-15T07:28:45.675Z,1.80
2018-12-15T07:32:48.295Z,1.80
2018-12-15T07:36:50.905Z,1.80
2018-12-15T07:40:53.537Z,1.80
2018-12-15T07:44:56.153Z,1.80
2018-12-15T07:48:58.794Z,1.80
2018-12-15T07:53:01.409Z,1.90
2018-12-15T07:57:04.019Z,1.90
2018-12-15T08:01:06.696Z,1.90
2018-12-15T08:05:09.410Z,1.90
2018-12-15T08:09:12.025Z,1.90
2018-12-15T08:13:20.045Z,1.90
2018-12-15T08:17:22.661Z,1.90
2018-12-15T08:21:25.244Z,1.90
2018-12-15T08:25:27.861Z,1.90
2018-12-15T08:29:30.473Z,1.90
2018-12-15T08:33:33.309Z,1.90
2018-12-15T08:37:35.949Z,1.90
2018-12-15T08:41:38.570Z,1.90
2018-12-15T08:45:41.371Z,1.90
2018-12-15T08:49:44.696Z,1.90
2018-12-15T08:53:47.301Z,2.00
2018-12-15T08:57:49.919Z,2.00
2018-12-15T09:01:52.509Z,2.00
2018-12-15T09:05:55.132Z,2.00
2018-12-15T09:09:57.842Z,2.00
2018-12-15T09:14:00.466Z,2.00
2018-12-15T09:18:03.246Z,2.00
2018-12-15T09:22:11.352Z,2.00
2018-12-15T09:26:10.466Z,2.00
2018-12-15T09:30:13.084Z,2.00
2018-12-15T09:34:15.706Z,2.00
2018-12-15T09:38:18.329Z,2.00
2018-12-15T09:42:20.941Z,2.00
2018-12-15T09:46:23.658Z,2.00
2018-12-15T09:50:27.170Z,2.00
2018-12-15T09:54:30.593Z,2.10
2018-12-15T09:58:33.333Z,2.10
2018-12-15T10:02:35.924Z,2.10
2018-12-15T10:06:38.539Z,2.10
2018-12-15T10:10:41.136Z,2.10
2018-12-15T10:14:43.893Z,2.10
2018-12-15T10:18:46.605Z,2.10
2018-12-15T10:22:49.213Z,2.10
2018-12-15T10:26:51.838Z,2.10
2018-12-15T10:30:59.892Z,2.10
2018-12-15T10:35:02.603Z,2.10
2018-12-15T10:39:06.786Z,2.10
2018-12-15T10:43:09.419Z,2.10
2018-12-15T10:47:12.031Z,2.10
2018-12-15T10:51:14.653Z,2.10
2018-12-15T10:55:17.377Z,2.10
2018-12-15T10:59:19.993Z,2.10
2018-12-15T11:03:22.596Z,2.10
2018-12-15T11:07:25.205Z,2.10
2018-12-15T11:11:28.384Z,2.10
2018-12-15T11:15:31.097Z,2.10
2018-12-15T11:19:37.190Z,2.10
2018-12-15T11:23:40.014Z,2.10
2018-12-15T11:27:42.640Z,2.10
2018-12-15T11:31:45.261Z,2.10
2018-12-15T11:35:47.949Z,2.10
2018-12-15T11:39:50.641Z,2.10
2018-12-15T11:43:53.282Z,2.10
2018-12-15T11:47:55.909Z,2.10
2018-12-15T11:51:58.588Z,2.10
2018-12-15T11:56:01.734Z,2.10
2018-12-15T12:00:05.392Z,2.10
2018-12-15T12:04:08.050Z,2.20
2018-12-15T12:08:10.678Z,2.20
2018-12-15T12:12:13.281Z,2.20
2018-12-15T12:16:15.897Z,2.20
2018-12-15T12:20:18.485Z,2.20
2018-12-15T12:24:21.092Z,2.20
2018-12-15T12:28:23.705Z,2.20
2018-12-15T12:32:26.326Z,2.20
2018-12-15T12:36:28.937Z,2.20
2018-12-15T12:40:31.557Z,2.20
2018-12-15T12:44:34.165Z,2.30
2018-12-15T12:48:36.846Z,2.30
2018-12-15T12:52:40.426Z,2.30
2018-12-15T12:56:43.191Z,2.30
2018-12-15T13:00:46.010Z,2.30
2018-12-15T13:04:48.763Z,2.30
2018-12-15T13:08:51.413Z,2.30
2018-12-15T13:12:54.122Z,2.30
2018-12-15T13:16:56.733Z,2.30
2018-12-15T13:20:59.317Z,2.30
2018-12-15T13:25:01.939Z,2.30
2018-12-15T13:29:04.574Z,2.20
2018-12-15T13:33:13.177Z,2.20
2018-12-15T13:37:15.934Z,2.20
2018-12-15T13:41:18.694Z,2.20
2018-12-15T13:45:21.604Z,2.20
2018-12-15T13:49:24.243Z,2.20
2018-12-15T13:53:28.061Z,2.20
2018-12-15T13:57:31.072Z,2.10
2018-12-15T14:01:33.758Z,2.10
2018-12-15T14:05:36.519Z,2.10
2018-12-15T14:09:39.160Z,2.10
2018-12-15T14:14:07.642Z,2.00
2018-12-15T14:18:10.293Z,2.10
2018-12-15T14:22:12.974Z,2.00
2018-12-15T14:26:15.634Z,2.00
2018-12-15T14:30:18.295Z,2.00
2018-12-15T14:34:20.929Z,2.00
2018-12-15T14:38:23.561Z,2.00
2018-12-15T14:42:26.242Z,1.90
2018-12-15T14:46:28.934Z,1.90
2018-12-15T14:50:31.571Z,1.90
2018-12-15T14:54:34.334Z,1.90
2018-12-15T14:58:36.997Z,1.90
2018-12-15T15:02:39.601Z,1.90
2018-12-15T15:06:42.243Z,1.90
2018-12-15T15:10:44.976Z,1.80
2018-12-15T15:14:47.611Z,1.90
2018-12-15T15:18:50.230Z,1.80
2018-12-15T15:22:52.832Z,1.80
2018-12-15T15:26:55.504Z,1.80
2018-12-15T15:30:58.138Z,1.80
2018-12-15T15:35:00.842Z,1.70
2018-12-15T15:39:05.018Z,1.70
2018-12-15T15:43:07.782Z,1.70
2018-12-15T15:47:10.517Z,1.70
2018-12-15T15:51:13.161Z,1.60
2018-12-15T15:55:15.849Z,1.60
2018-12-15T15:59:18.476Z,1.60
2018-12-15T16:03:21.434Z,1.60
2018-12-15T16:07:24.212Z,1.60
2018-12-15T16:11:29.955Z,1.60
2018-12-15T16:15:32.682Z,1.50
2018-12-15T16:19:35.292Z,1.50
2018-12-15T16:23:37.903Z,1.50
2018-12-15T16:27:40.633Z,1.50
2018-12-15T16:31:43.282Z,1.40
2018-12-15T16:35:45.994Z,1.40
2018-12-15T16:39:48.643Z,1.40
2018-12-15T16:43:52.753Z,1.40
2018-12-15T16:47:55.371Z,1.40
2018-12-15T16:51:57.994Z,1.40
2018-12-15T16:56:00.613Z,1.30
2018-12-15T17:00:04.418Z,1.30
2018-12-15T17:04:07.072Z,1.30
2018-12-15T17:08:09.681Z,1.30
2018-12-15T17:12:12.424Z,1.30
2018-12-15T17:16:15.091Z,1.30
2018-12-15T17:20:17.869Z,1.30
2018-12-15T17:24:20.649Z,1.30
2018-12-15T17:28:23.272Z,1.30
2018-12-15T17:32:25.981Z,1.30
2018-12-15T17:36:28.612Z,1.30
2018-12-15T17:40:31.265Z,1.30
2018-12-15T17:44:33.924Z,1.30
2018-12-15T17:48:36.580Z,1.20
2018-12-15T17:52:39.289Z,1.30
2018-12-15T17:56:41.912Z,1.30
2018-12-15T18:00:44.632Z,1.20
2018-12-15T18:04:47.268Z,1.20
2018-12-15T18:08:49.922Z,1.20
2018-12-15T18:12:52.632Z,1.20
2018-12-15T18:16:55.304Z,1.20
2018-12-15T18:20:57.911Z,1.10
2018-12-15T18:25:00.583Z,1.10
2018-12-15T18:29:03.201Z,1.10
2018-12-15T18:33:05.857Z,1.10
2018-12-15T18:37:08.777Z,1.10
2018-12-15T18:41:11.445Z,1.10
2018-12-15T18:45:14.364Z,1.00
2018-12-15T18:49:17.248Z,1.00
2018-12-15T18:53:19.934Z,1.00
2018-12-15T18:57:22.582Z,1.00
2018-12-15T19:01:25.237Z,1.00
2018-12-15T19:05:27.863Z,1.00
2018-12-15T19:09:30.644Z,1.00
2018-12-15T19:13:34.289Z,1.00
2018-12-15T19:17:37.517Z,1.00
2018-12-15T19:21:40.222Z,1.00
2018-12-15T19:25:43.246Z,1.00
2018-12-15T19:29:46.662Z,1.00
2018-12-15T19:33:49.384Z,0.90
2018-12-15T19:37:52.460Z,0.90
2018-12-15T19:41:55.681Z,0.90
2018-12-15T19:45:59.515Z,0.90
2018-12-15T19:50:02.145Z,0.80
2018-12-15T19:54:06.456Z,0.80
2018-12-15T19:58:09.250Z,0.80
2018-12-15T20:02:13.083Z,0.70
2018-12-15T20:06:16.837Z,0.80
2018-12-15T20:10:19.696Z,0.80
2018-12-15T20:14:22.631Z,0.70
2018-12-15T20:18:25.903Z,0.70
2018-12-15T20:22:29.128Z,0.70
2018-12-15T20:26:31.950Z,0.70
2018-12-15T20:30:35.221Z,0.70
2018-12-15T20:34:37.955Z,0.70
2018-12-15T20:38:42.664Z,0.70
2018-12-15T20:42:46.169Z,0.70
2018-12-15T20:46:48.867Z,0.70
2018-12-15T20:50:52.464Z,0.70
2018-12-15T20:54:56.861Z,0.60
2018-12-15T20:59:00.353Z,0.60
2018-12-15T21:03:03.737Z,0.60
2018-12-15T21:07:06.849Z,0.70
2018-12-15T21:11:10.217Z,0.70
2018-12-15T21:15:19.009Z,0.70
2018-12-15T21:19:25.758Z,0.70
2018-12-15T21:23:28.767Z,0.70
2018-12-15T21:27:32.633Z,0.70
2018-12-15T21:31:35.692Z,0.70
2018-12-15T21:35:39.598Z,0.70
2018-12-15T21:39:43.618Z,0.70
2018-12-15T21:43:46.882Z,0.70
2018-12-15T21:47:57.378Z,0.70
2018-12-15T21:51:56.687Z,0.70
2018-12-15T21:56:59.851Z,0.70
2018-12-15T22:01:02.643Z,0.70
2018-12-15T22:05:06.017Z,0.60
2018-12-15T22:09:08.877Z,0.60
2018-12-15T22:13:13.449Z,0.60
2018-12-15T22:17:16.122Z,0.50
2018-12-15T22:21:19.091Z,0.50
2018-12-15T22:25:22.182Z,0.50
2018-12-15T22:29:25.054Z,0.40
2018-12-15T22:33:28.029Z,0.40
2018-12-15T22:37:31.334Z,0.40
2018-12-15T22:41:35.435Z,0.30
2018-12-15T22:45:38.137Z,0.30
2018-12-15T22:49:40.798Z,0.30
2018-12-15T22:53:43.826Z,0.30
2018-12-15T22:57:53.964Z,0.20
2018-12-15T23:01:58.459Z,0.20
2018-12-15T23:06:01.851Z,0.20
2018-12-15T23:10:05.431Z,0.20
2018-12-15T23:14:08.072Z,0.20
2018-12-15T23:18:12.045Z,0.20
2018-12-15T23:22:16.428Z,0.20
2018-12-15T23:26:19.349Z,0.20
2018-12-15T23:30:22.559Z,0.20
2018-12-15T23:34:25.905Z,0.20
2018-12-15T23:38:29.693Z,0.20
2018-12-15T23:42:33.626Z,0.20
2018-12-15T23:46:37.023Z,0.20
2018-12-15T23:50:40.423Z,0.20
2018-12-15T23:54:43.695Z,0.20
2018-12-15T23:58:47.539Z,0.20
